sensor_id;sensor_type;location;lat;lon;timestamp;P1;durP1;ratioP1;P2;durP2;ratioP2
56381;SDS011;50261;51.150;4.470;2023-07-31T00:01:24;17.90;;;5.20;;
56381;SDS011;50261;51.150;4.470;2023-07-31T00:03:50;13.25;;;4.40;;
56381;SDS011;50261;51.150;4.470;2023-07-31T00:06:16;13.05;;;4.22;;
56381;SDS011;50261;51.150;4.470;2023-07-31T00:08:41;16.02;;;4.20;;
56381;SDS011;50261;51.150;4.470;2023-07-31T00:11:07;12.32;;;4.38;;
56381;SDS011;50261;51.150;4.470;2023-07-31T00:13:33;18.73;;;4.47;;
56381;SDS011;50261;51.150;4.470;2023-07-31T00:15:58;13.77;;;4.65;;
56381;SDS011;50261;51.150;4.470;2023-07-31T00:18:24;10.82;;;4.78;;
56381;SDS011;50261;51.150;4.470;2023-07-31T00:20:50;13.48;;;4.00;;
56381;SDS011;50261;51.150;4.470;2023-07-31T00:23:16;9.70;;;4.47;;
56381;SDS011;50261;51.150;4.470;2023-07-31T00:25:41;18.58;;;4.82;;
56381;SDS011;50261;51.150;4.470;2023-07-31T00:28:07;15.00;;;5.03;;
56381;SDS011;50261;51.150;4.470;2023-07-31T00:30:33;18.40;;;4.45;;
56381;SDS011;50261;51.150;4.470;2023-07-31T00:33:00;16.77;;;5.20;;
56381;SDS011;50261;51.150;4.470;2023-07-31T00:35:25;17.05;;;5.07;;
56381;SDS011;50261;51.150;4.470;2023-07-31T00:37:51;10.98;;;4.00;;
56381;SDS011;50261;51.150;4.470;2023-07-31T00:40:17;19.13;;;5.50;;
56381;SDS011;50261;51.150;4.470;2023-07-31T00:42:42;18.13;;;4.15;;
56381;SDS011;50261;51.150;4.470;2023-07-31T00:45:08;14.65;;;4.40;;
56381;SDS011;50261;51.150;4.470;2023-07-31T00:47:34;13.43;;;5.13;;
56381;SDS011;50261;51.150;4.470;2023-07-31T00:50:00;14.35;;;4.60;;
56381;SDS011;50261;51.150;4.470;2023-07-31T00:52:25;16.90;;;4.75;;
56381;SDS011;50261;51.150;4.470;2023-07-31T00:54:51;15.88;;;4.80;;
56381;SDS011;50261;51.150;4.470;2023-07-31T00:57:17;18.20;;;5.00;;
56381;SDS011;50261;51.150;4.470;2023-07-31T00:59:43;13.32;;;4.70;;
56381;SDS011;50261;51.150;4.470;2023-07-31T01:02:08;16.33;;;5.20;;
56381;SDS011;50261;51.150;4.470;2023-07-31T01:04:34;12.63;;;4.78;;
56381;SDS011;50261;51.150;4.470;2023-07-31T01:07:10;17.15;;;4.80;;
56381;SDS011;50261;51.150;4.470;2023-07-31T01:09:43;15.02;;;4.97;;
56381;SDS011;50261;51.150;4.470;2023-07-31T01:12:13;12.90;;;3.65;;
56381;SDS011;50261;51.150;4.470;2023-07-31T01:14:39;21.10;;;5.55;;
56381;SDS011;50261;51.150;4.470;2023-07-31T01:17:05;16.52;;;4.53;;
56381;SDS011;50261;51.150;4.470;2023-07-31T01:19:30;12.88;;;4.90;;
56381;SDS011;50261;51.150;4.470;2023-07-31T01:21:59;11.35;;;3.63;;
56381;SDS011;50261;51.150;4.470;2023-07-31T01:24:30;12.48;;;4.70;;
56381;SDS011;50261;51.150;4.470;2023-07-31T01:27:04;15.30;;;5.25;;
56381;SDS011;50261;51.150;4.470;2023-07-31T01:29:33;9.60;;;3.40;;
56381;SDS011;50261;51.150;4.470;2023-07-31T01:32:01;16.52;;;4.72;;
56381;SDS011;50261;51.150;4.470;2023-07-31T01:34:28;11.10;;;4.35;;
56381;SDS011;50261;51.150;4.470;2023-07-31T01:36:55;13.43;;;4.07;;
56381;SDS011;50261;51.150;4.470;2023-07-31T01:39:22;13.65;;;4.68;;
56381;SDS011;50261;51.150;4.470;2023-07-31T01:41:48;17.25;;;5.18;;
56381;SDS011;50261;51.150;4.470;2023-07-31T01:44:14;14.75;;;4.88;;
56381;SDS011;50261;51.150;4.470;2023-07-31T01:46:40;17.83;;;4.93;;
56381;SDS011;50261;51.150;4.470;2023-07-31T01:49:06;11.18;;;4.07;;
56381;SDS011;50261;51.150;4.470;2023-07-31T01:51:31;12.95;;;4.55;;
56381;SDS011;50261;51.150;4.470;2023-07-31T01:54:03;14.10;;;4.72;;
56381;SDS011;50261;51.150;4.470;2023-07-31T01:56:28;13.43;;;4.70;;
56381;SDS011;50261;51.150;4.470;2023-07-31T01:58:54;18.67;;;4.35;;
56381;SDS011;50261;51.150;4.470;2023-07-31T02:01:20;13.75;;;3.97;;
56381;SDS011;50261;51.150;4.470;2023-07-31T02:03:46;15.80;;;4.80;;
56381;SDS011;50261;51.150;4.470;2023-07-31T02:06:13;13.48;;;3.88;;
56381;SDS011;50261;51.150;4.470;2023-07-31T02:08:39;21.45;;;4.55;;
56381;SDS011;50261;51.150;4.470;2023-07-31T02:11:05;12.95;;;4.70;;
56381;SDS011;50261;51.150;4.470;2023-07-31T02:13:30;20.40;;;4.30;;
56381;SDS011;50261;51.150;4.470;2023-07-31T02:15:56;15.13;;;4.68;;
56381;SDS011;50261;51.150;4.470;2023-07-31T02:18:22;16.42;;;4.93;;
56381;SDS011;50261;51.150;4.470;2023-07-31T02:20:51;15.10;;;4.50;;
56381;SDS011;50261;51.150;4.470;2023-07-31T02:23:17;13.30;;;4.43;;
56381;SDS011;50261;51.150;4.470;2023-07-31T02:25:44;16.42;;;5.25;;
56381;SDS011;50261;51.150;4.470;2023-07-31T02:28:09;15.23;;;4.82;;
56381;SDS011;50261;51.150;4.470;2023-07-31T02:30:35;14.45;;;4.72;;
56381;SDS011;50261;51.150;4.470;2023-07-31T02:33:01;14.32;;;4.78;;
56381;SDS011;50261;51.150;4.470;2023-07-31T02:35:26;16.30;;;4.65;;
56381;SDS011;50261;51.150;4.470;2023-07-31T02:37:52;16.85;;;4.85;;
56381;SDS011;50261;51.150;4.470;2023-07-31T02:40:18;18.55;;;4.82;;
56381;SDS011;50261;51.150;4.470;2023-07-31T02:42:44;11.75;;;4.75;;
56381;SDS011;50261;51.150;4.470;2023-07-31T02:45:11;15.32;;;4.60;;
56381;SDS011;50261;51.150;4.470;2023-07-31T02:47:36;16.30;;;4.22;;
56381;SDS011;50261;51.150;4.470;2023-07-31T02:50:02;12.60;;;4.07;;
56381;SDS011;50261;51.150;4.470;2023-07-31T02:52:28;15.27;;;4.30;;
56381;SDS011;50261;51.150;4.470;2023-07-31T02:54:54;15.60;;;5.28;;
56381;SDS011;50261;51.150;4.470;2023-07-31T02:57:19;14.02;;;4.38;;
56381;SDS011;50261;51.150;4.470;2023-07-31T02:59:45;12.48;;;4.03;;
56381;SDS011;50261;51.150;4.470;2023-07-31T03:02:11;12.35;;;4.50;;
56381;SDS011;50261;51.150;4.470;2023-07-31T03:04:38;13.20;;;4.40;;
56381;SDS011;50261;51.150;4.470;2023-07-31T03:07:04;14.43;;;4.35;;
56381;SDS011;50261;51.150;4.470;2023-07-31T03:09:30;16.25;;;4.07;;
56381;SDS011;50261;51.150;4.470;2023-07-31T03:11:55;12.30;;;4.57;;
56381;SDS011;50261;51.150;4.470;2023-07-31T03:14:21;13.15;;;4.60;;
56381;SDS011;50261;51.150;4.470;2023-07-31T03:16:47;10.13;;;3.95;;
56381;SDS011;50261;51.150;4.470;2023-07-31T03:19:13;20.63;;;5.05;;
56381;SDS011;50261;51.150;4.470;2023-07-31T03:21:38;15.48;;;5.00;;
56381;SDS011;50261;51.150;4.470;2023-07-31T03:24:04;16.45;;;4.10;;
56381;SDS011;50261;51.150;4.470;2023-07-31T03:26:33;15.05;;;4.40;;
56381;SDS011;50261;51.150;4.470;2023-07-31T03:28:58;14.27;;;4.63;;
56381;SDS011;50261;51.150;4.470;2023-07-31T03:31:25;13.90;;;4.32;;
56381;SDS011;50261;51.150;4.470;2023-07-31T03:33:51;10.82;;;4.15;;
56381;SDS011;50261;51.150;4.470;2023-07-31T03:36:17;13.07;;;4.22;;
56381;SDS011;50261;51.150;4.470;2023-07-31T03:38:42;17.25;;;4.93;;
56381;SDS011;50261;51.150;4.470;2023-07-31T03:41:08;12.52;;;4.90;;
56381;SDS011;50261;51.150;4.470;2023-07-31T03:43:35;17.80;;;5.22;;
56381;SDS011;50261;51.150;4.470;2023-07-31T03:46:01;13.18;;;4.70;;
56381;SDS011;50261;51.150;4.470;2023-07-31T03:48:27;12.27;;;4.82;;
56381;SDS011;50261;51.150;4.470;2023-07-31T03:50:53;13.73;;;4.88;;
56381;SDS011;50261;51.150;4.470;2023-07-31T03:53:19;13.55;;;5.05;;
56381;SDS011;50261;51.150;4.470;2023-07-31T03:55:45;14.30;;;4.38;;
56381;SDS011;50261;51.150;4.470;2023-07-31T03:58:10;12.85;;;5.38;;
56381;SDS011;50261;51.150;4.470;2023-07-31T04:00:36;12.80;;;4.03;;
56381;SDS011;50261;51.150;4.470;2023-07-31T04:03:03;12.70;;;5.30;;
56381;SDS011;50261;51.150;4.470;2023-07-31T04:05:32;14.35;;;5.13;;
56381;SDS011;50261;51.150;4.470;2023-07-31T04:07:58;9.38;;;4.63;;
56381;SDS011;50261;51.150;4.470;2023-07-31T04:10:24;14.45;;;5.47;;
56381;SDS011;50261;51.150;4.470;2023-07-31T04:12:49;14.35;;;5.85;;
56381;SDS011;50261;51.150;4.470;2023-07-31T04:15:15;17.95;;;5.50;;
56381;SDS011;50261;51.150;4.470;2023-07-31T04:17:40;15.15;;;5.45;;
56381;SDS011;50261;51.150;4.470;2023-07-31T04:20:06;11.52;;;5.80;;
56381;SDS011;50261;51.150;4.470;2023-07-31T04:22:32;14.63;;;6.03;;
56381;SDS011;50261;51.150;4.470;2023-07-31T04:24:58;13.70;;;6.13;;
56381;SDS011;50261;51.150;4.470;2023-07-31T04:27:24;15.30;;;5.45;;
56381;SDS011;50261;51.150;4.470;2023-07-31T04:29:50;14.65;;;6.40;;
56381;SDS011;50261;51.150;4.470;2023-07-31T04:32:16;12.77;;;5.88;;
56381;SDS011;50261;51.150;4.470;2023-07-31T04:34:42;15.23;;;5.93;;
56381;SDS011;50261;51.150;4.470;2023-07-31T04:37:08;15.55;;;6.38;;
56381;SDS011;50261;51.150;4.470;2023-07-31T04:39:33;14.15;;;5.75;;
56381;SDS011;50261;51.150;4.470;2023-07-31T04:41:59;12.80;;;5.03;;
56381;SDS011;50261;51.150;4.470;2023-07-31T04:44:25;11.27;;;5.32;;
56381;SDS011;50261;51.150;4.470;2023-07-31T04:46:50;13.43;;;5.03;;
56381;SDS011;50261;51.150;4.470;2023-07-31T04:49:16;12.07;;;6.57;;
56381;SDS011;50261;51.150;4.470;2023-07-31T04:51:42;11.20;;;6.10;;
56381;SDS011;50261;51.150;4.470;2023-07-31T04:54:07;10.73;;;5.82;;
56381;SDS011;50261;51.150;4.470;2023-07-31T04:56:33;9.45;;;4.50;;
56381;SDS011;50261;51.150;4.470;2023-07-31T04:58:59;15.20;;;5.28;;
56381;SDS011;50261;51.150;4.470;2023-07-31T05:01:24;10.88;;;5.07;;
56381;SDS011;50261;51.150;4.470;2023-07-31T05:03:50;11.88;;;5.07;;
56381;SDS011;50261;51.150;4.470;2023-07-31T05:06:16;11.82;;;5.57;;
56381;SDS011;50261;51.150;4.470;2023-07-31T05:08:42;9.88;;;5.60;;
56381;SDS011;50261;51.150;4.470;2023-07-31T05:11:07;10.05;;;5.40;;
56381;SDS011;50261;51.150;4.470;2023-07-31T05:13:33;12.57;;;6.00;;
56381;SDS011;50261;51.150;4.470;2023-07-31T05:15:59;12.27;;;5.38;;
56381;SDS011;50261;51.150;4.470;2023-07-31T05:18:24;9.55;;;6.00;;
56381;SDS011;50261;51.150;4.470;2023-07-31T05:20:50;10.90;;;6.05;;
56381;SDS011;50261;51.150;4.470;2023-07-31T05:23:16;8.73;;;5.80;;
56381;SDS011;50261;51.150;4.470;2023-07-31T05:25:41;16.15;;;6.43;;
56381;SDS011;50261;51.150;4.470;2023-07-31T05:28:07;10.95;;;5.85;;
56381;SDS011;50261;51.150;4.470;2023-07-31T05:30:33;12.45;;;5.75;;
56381;SDS011;50261;51.150;4.470;2023-07-31T05:32:58;9.65;;;5.20;;
56381;SDS011;50261;51.150;4.470;2023-07-31T05:35:24;9.93;;;5.10;;
56381;SDS011;50261;51.150;4.470;2023-07-31T05:37:49;7.25;;;4.47;;
56381;SDS011;50261;51.150;4.470;2023-07-31T05:40:15;11.30;;;5.45;;
56381;SDS011;50261;51.150;4.470;2023-07-31T05:42:42;11.10;;;5.38;;
56381;SDS011;50261;51.150;4.470;2023-07-31T05:45:08;11.90;;;5.60;;
56381;SDS011;50261;51.150;4.470;2023-07-31T05:47:34;14.75;;;7.53;;
56381;SDS011;50261;51.150;4.470;2023-07-31T05:50:00;13.30;;;6.43;;
56381;SDS011;50261;51.150;4.470;2023-07-31T05:52:26;13.85;;;7.72;;
56381;SDS011;50261;51.150;4.470;2023-07-31T05:54:51;15.20;;;7.78;;
56381;SDS011;50261;51.150;4.470;2023-07-31T05:57:17;14.80;;;7.40;;
56381;SDS011;50261;51.150;4.470;2023-07-31T05:59:42;9.73;;;5.95;;
56381;SDS011;50261;51.150;4.470;2023-07-31T06:02:08;15.55;;;7.32;;
56381;SDS011;50261;51.150;4.470;2023-07-31T06:04:33;10.65;;;5.28;;
56381;SDS011;50261;51.150;4.470;2023-07-31T06:06:59;11.18;;;6.90;;
56381;SDS011;50261;51.150;4.470;2023-07-31T06:09:25;10.57;;;5.28;;
56381;SDS011;50261;51.150;4.470;2023-07-31T06:11:51;12.25;;;6.45;;
56381;SDS011;50261;51.150;4.470;2023-07-31T06:14:17;12.40;;;6.25;;
56381;SDS011;50261;51.150;4.470;2023-07-31T06:16:43;14.57;;;6.68;;
56381;SDS011;50261;51.150;4.470;2023-07-31T06:19:09;12.50;;;6.07;;
56381;SDS011;50261;51.150;4.470;2023-07-31T06:21:35;14.32;;;6.75;;
56381;SDS011;50261;51.150;4.470;2023-07-31T06:24:02;13.82;;;6.22;;
56381;SDS011;50261;51.150;4.470;2023-07-31T06:26:28;11.43;;;5.90;;
56381;SDS011;50261;51.150;4.470;2023-07-31T06:28:53;9.82;;;6.00;;
56381;SDS011;50261;51.150;4.470;2023-07-31T06:31:19;10.95;;;5.40;;
56381;SDS011;50261;51.150;4.470;2023-07-31T06:33:48;15.75;;;6.40;;
56381;SDS011;50261;51.150;4.470;2023-07-31T06:36:14;12.80;;;5.03;;
56381;SDS011;50261;51.150;4.470;2023-07-31T06:38:39;11.75;;;4.75;;
56381;SDS011;50261;51.150;4.470;2023-07-31T06:41:04;11.60;;;4.93;;
56381;SDS011;50261;51.150;4.470;2023-07-31T06:43:30;16.80;;;5.70;;
56381;SDS011;50261;51.150;4.470;2023-07-31T06:45:55;10.60;;;5.70;;
56381;SDS011;50261;51.150;4.470;2023-07-31T06:48:21;12.70;;;4.95;;
56381;SDS011;50261;51.150;4.470;2023-07-31T06:50:46;8.30;;;4.32;;
56381;SDS011;50261;51.150;4.470;2023-07-31T06:53:11;14.07;;;5.30;;
56381;SDS011;50261;51.150;4.470;2023-07-31T06:55:37;13.80;;;5.05;;
56381;SDS011;50261;51.150;4.470;2023-07-31T06:58:03;10.55;;;5.32;;
56381;SDS011;50261;51.150;4.470;2023-07-31T07:00:29;12.05;;;5.38;;
56381;SDS011;50261;51.150;4.470;2023-07-31T07:02:54;10.45;;;3.88;;
56381;SDS011;50261;51.150;4.470;2023-07-31T07:05:20;11.05;;;5.32;;
56381;SDS011;50261;51.150;4.470;2023-07-31T07:07:45;12.10;;;5.63;;
56381;SDS011;50261;51.150;4.470;2023-07-31T07:10:11;12.52;;;5.68;;
56381;SDS011;50261;51.150;4.470;2023-07-31T07:12:37;11.52;;;5.53;;
56381;SDS011;50261;51.150;4.470;2023-07-31T07:15:03;9.85;;;4.57;;
56381;SDS011;50261;51.150;4.470;2023-07-31T07:17:29;16.30;;;6.20;;
56381;SDS011;50261;51.150;4.470;2023-07-31T07:19:57;11.55;;;5.35;;
56381;SDS011;50261;51.150;4.470;2023-07-31T07:22:23;11.00;;;4.22;;
56381;SDS011;50261;51.150;4.470;2023-07-31T07:24:49;11.38;;;4.65;;
56381;SDS011;50261;51.150;4.470;2023-07-31T07:27:14;8.35;;;3.88;;
56381;SDS011;50261;51.150;4.470;2023-07-31T07:29:40;9.30;;;4.32;;
56381;SDS011;50261;51.150;4.470;2023-07-31T07:32:06;13.25;;;5.20;;
56381;SDS011;50261;51.150;4.470;2023-07-31T07:34:31;10.82;;;5.25;;
56381;SDS011;50261;51.150;4.470;2023-07-31T07:36:56;7.38;;;3.08;;
56381;SDS011;50261;51.150;4.470;2023-07-31T07:39:22;10.00;;;4.88;;
56381;SDS011;50261;51.150;4.470;2023-07-31T07:41:47;9.00;;;4.15;;
56381;SDS011;50261;51.150;4.470;2023-07-31T07:44:13;8.02;;;3.80;;
56381;SDS011;50261;51.150;4.470;2023-07-31T07:46:39;5.53;;;2.83;;
56381;SDS011;50261;51.150;4.470;2023-07-31T07:49:04;8.73;;;4.32;;
56381;SDS011;50261;51.150;4.470;2023-07-31T07:51:30;8.23;;;5.03;;
56381;SDS011;50261;51.150;4.470;2023-07-31T07:53:59;7.68;;;4.40;;
56381;SDS011;50261;51.150;4.470;2023-07-31T07:56:25;8.15;;;4.53;;
56381;SDS011;50261;51.150;4.470;2023-07-31T07:58:51;9.77;;;4.03;;
56381;SDS011;50261;51.150;4.470;2023-07-31T08:01:16;8.05;;;4.53;;
56381;SDS011;50261;51.150;4.470;2023-07-31T08:03:42;10.05;;;2.72;;
56381;SDS011;50261;51.150;4.470;2023-07-31T08:06:08;11.38;;;3.53;;
56381;SDS011;50261;51.150;4.470;2023-07-31T08:08:37;7.07;;;3.95;;
56381;SDS011;50261;51.150;4.470;2023-07-31T08:11:03;7.15;;;4.10;;
56381;SDS011;50261;51.150;4.470;2023-07-31T08:13:28;4.38;;;2.67;;
56381;SDS011;50261;51.150;4.470;2023-07-31T08:15:54;6.95;;;3.85;;
56381;SDS011;50261;51.150;4.470;2023-07-31T08:18:19;9.10;;;3.65;;
56381;SDS011;50261;51.150;4.470;2023-07-31T08:20:45;7.28;;;2.83;;
56381;SDS011;50261;51.150;4.470;2023-07-31T08:23:10;7.53;;;3.35;;
56381;SDS011;50261;51.150;4.470;2023-07-31T08:25:36;6.05;;;2.95;;
56381;SDS011;50261;51.150;4.470;2023-07-31T08:28:05;7.38;;;3.10;;
56381;SDS011;50261;51.150;4.470;2023-07-31T08:30:30;6.80;;;3.40;;
56381;SDS011;50261;51.150;4.470;2023-07-31T08:32:56;9.88;;;3.05;;
56381;SDS011;50261;51.150;4.470;2023-07-31T08:35:21;9.25;;;3.35;;
56381;SDS011;50261;51.150;4.470;2023-07-31T08:37:47;8.35;;;3.45;;
56381;SDS011;50261;51.150;4.470;2023-07-31T08:40:12;9.80;;;3.40;;
56381;SDS011;50261;51.150;4.470;2023-07-31T08:42:43;8.07;;;3.17;;
56381;SDS011;50261;51.150;4.470;2023-07-31T08:45:08;7.63;;;3.40;;
56381;SDS011;50261;51.150;4.470;2023-07-31T08:47:34;5.63;;;3.05;;
56381;SDS011;50261;51.150;4.470;2023-07-31T08:50:00;8.20;;;4.13;;
56381;SDS011;50261;51.150;4.470;2023-07-31T08:52:26;9.50;;;3.42;;
56381;SDS011;50261;51.150;4.470;2023-07-31T08:54:52;7.15;;;3.22;;
56381;SDS011;50261;51.150;4.470;2023-07-31T08:57:17;5.35;;;2.40;;
56381;SDS011;50261;51.150;4.470;2023-07-31T08:59:43;7.22;;;3.00;;
56381;SDS011;50261;51.150;4.470;2023-07-31T09:02:09;5.00;;;2.10;;
56381;SDS011;50261;51.150;4.470;2023-07-31T09:04:35;6.28;;;3.03;;
56381;SDS011;50261;51.150;4.470;2023-07-31T09:07:01;7.80;;;2.75;;
56381;SDS011;50261;51.150;4.470;2023-07-31T09:09:28;4.32;;;2.88;;
56381;SDS011;50261;51.150;4.470;2023-07-31T09:11:54;5.60;;;2.55;;
56381;SDS011;50261;51.150;4.470;2023-07-31T09:14:20;4.45;;;2.70;;
56381;SDS011;50261;51.150;4.470;2023-07-31T09:16:55;6.15;;;2.78;;
56381;SDS011;50261;51.150;4.470;2023-07-31T09:19:25;6.75;;;2.88;;
56381;SDS011;50261;51.150;4.470;2023-07-31T09:21:51;4.63;;;1.80;;
56381;SDS011;50261;51.150;4.470;2023-07-31T09:24:26;8.45;;;3.08;;
56381;SDS011;50261;51.150;4.470;2023-07-31T09:26:53;4.60;;;2.25;;
56381;SDS011;50261;51.150;4.470;2023-07-31T09:29:19;7.13;;;2.83;;
56381;SDS011;50261;51.150;4.470;2023-07-31T09:31:45;6.70;;;3.08;;
56381;SDS011;50261;51.150;4.470;2023-07-31T09:34:10;5.72;;;3.05;;
56381;SDS011;50261;51.150;4.470;2023-07-31T09:36:44;5.32;;;2.50;;
56381;SDS011;50261;51.150;4.470;2023-07-31T09:39:10;5.47;;;2.53;;
56381;SDS011;50261;51.150;4.470;2023-07-31T09:41:39;8.23;;;3.40;;
56381;SDS011;50261;51.150;4.470;2023-07-31T09:44:06;5.95;;;3.22;;
56381;SDS011;50261;51.150;4.470;2023-07-31T09:46:32;11.68;;;2.95;;
56381;SDS011;50261;51.150;4.470;2023-07-31T09:49:18;7.53;;;2.83;;
56381;SDS011;50261;51.150;4.470;2023-07-31T09:51:43;6.43;;;3.28;;
56381;SDS011;50261;51.150;4.470;2023-07-31T09:54:12;7.40;;;2.78;;
56381;SDS011;50261;51.150;4.470;2023-07-31T09:56:43;7.60;;;2.72;;
56381;SDS011;50261;51.150;4.470;2023-07-31T09:59:10;8.20;;;2.70;;
56381;SDS011;50261;51.150;4.470;2023-07-31T10:01:36;7.80;;;3.65;;
56381;SDS011;50261;51.150;4.470;2023-07-31T10:04:02;4.35;;;2.60;;
56381;SDS011;50261;51.150;4.470;2023-07-31T10:06:29;5.57;;;3.58;;
56381;SDS011;50261;51.150;4.470;2023-07-31T10:08:55;5.47;;;3.40;;
56381;SDS011;50261;51.150;4.470;2023-07-31T10:11:22;6.72;;;2.65;;
56381;SDS011;50261;51.150;4.470;2023-07-31T10:13:48;7.65;;;2.90;;
56381;SDS011;50261;51.150;4.470;2023-07-31T10:16:15;11.68;;;3.03;;
56381;SDS011;50261;51.150;4.470;2023-07-31T10:18:42;4.68;;;2.42;;
56381;SDS011;50261;51.150;4.470;2023-07-31T10:21:08;6.63;;;2.92;;
56381;SDS011;50261;51.150;4.470;2023-07-31T10:23:34;7.72;;;3.08;;
56381;SDS011;50261;51.150;4.470;2023-07-31T10:26:00;4.50;;;3.08;;
56381;SDS011;50261;51.150;4.470;2023-07-31T10:28:26;5.00;;;2.55;;
56381;SDS011;50261;51.150;4.470;2023-07-31T10:30:52;3.45;;;1.88;;
56381;SDS011;50261;51.150;4.470;2023-07-31T10:33:19;4.60;;;2.90;;
56381;SDS011;50261;51.150;4.470;2023-07-31T10:35:46;4.78;;;3.08;;
56381;SDS011;50261;51.150;4.470;2023-07-31T10:38:12;5.93;;;3.22;;
56381;SDS011;50261;51.150;4.470;2023-07-31T10:40:38;7.63;;;3.75;;
56381;SDS011;50261;51.150;4.470;2023-07-31T10:43:04;8.68;;;3.85;;
56381;SDS011;50261;51.150;4.470;2023-07-31T10:45:41;14.45;;;4.00;;
56381;SDS011;50261;51.150;4.470;2023-07-31T10:48:14;7.47;;;4.13;;
56381;SDS011;50261;51.150;4.470;2023-07-31T10:50:50;8.10;;;3.97;;
56381;SDS011;50261;51.150;4.470;2023-07-31T10:53:26;8.52;;;3.67;;
56381;SDS011;50261;51.150;4.470;2023-07-31T10:55:52;5.60;;;2.83;;
56381;SDS011;50261;51.150;4.470;2023-07-31T10:58:18;8.93;;;4.90;;
56381;SDS011;50261;51.150;4.470;2023-07-31T11:00:45;9.02;;;3.35;;
56381;SDS011;50261;51.150;4.470;2023-07-31T11:03:14;8.27;;;4.13;;
56381;SDS011;50261;51.150;4.470;2023-07-31T11:05:48;12.77;;;5.32;;
56381;SDS011;50261;51.150;4.470;2023-07-31T11:10:42;10.60;;;5.07;;
56381;SDS011;50261;51.150;4.470;2023-07-31T11:13:08;9.07;;;3.72;;
56381;SDS011;50261;51.150;4.470;2023-07-31T11:15:34;8.57;;;4.28;;
56381;SDS011;50261;51.150;4.470;2023-07-31T11:18:00;8.63;;;3.90;;
56381;SDS011;50261;51.150;4.470;2023-07-31T11:20:29;14.07;;;5.45;;
56381;SDS011;50261;51.150;4.470;2023-07-31T11:22:57;9.65;;;5.25;;
56381;SDS011;50261;51.150;4.470;2023-07-31T11:25:23;15.77;;;5.30;;
56381;SDS011;50261;51.150;4.470;2023-07-31T11:27:49;9.77;;;4.95;;
56381;SDS011;50261;51.150;4.470;2023-07-31T11:30:19;12.55;;;4.55;;
56381;SDS011;50261;51.150;4.470;2023-07-31T11:32:45;8.98;;;4.15;;
56381;SDS011;50261;51.150;4.470;2023-07-31T11:35:14;11.73;;;4.78;;
56381;SDS011;50261;51.150;4.470;2023-07-31T11:37:40;9.18;;;4.55;;
56381;SDS011;50261;51.150;4.470;2023-07-31T11:40:07;9.55;;;4.43;;
56381;SDS011;50261;51.150;4.470;2023-07-31T11:42:34;10.63;;;4.65;;
56381;SDS011;50261;51.150;4.470;2023-07-31T11:45:03;10.38;;;3.97;;
56381;SDS011;50261;51.150;4.470;2023-07-31T11:47:29;11.32;;;4.60;;
56381;SDS011;50261;51.150;4.470;2023-07-31T11:49:56;11.63;;;4.43;;
56381;SDS011;50261;51.150;4.470;2023-07-31T11:52:21;9.63;;;3.67;;
56381;SDS011;50261;51.150;4.470;2023-07-31T11:54:48;7.45;;;3.80;;
56381;SDS011;50261;51.150;4.470;2023-07-31T11:57:14;9.25;;;4.30;;
56381;SDS011;50261;51.150;4.470;2023-07-31T11:59:41;11.88;;;4.07;;
56381;SDS011;50261;51.150;4.470;2023-07-31T12:02:07;8.82;;;4.50;;
56381;SDS011;50261;51.150;4.470;2023-07-31T12:04:33;7.72;;;3.42;;
56381;SDS011;50261;51.150;4.470;2023-07-31T12:07:00;8.73;;;3.88;;
56381;SDS011;50261;51.150;4.470;2023-07-31T12:09:25;9.93;;;4.30;;
56381;SDS011;50261;51.150;4.470;2023-07-31T12:11:51;8.18;;;4.30;;
56381;SDS011;50261;51.150;4.470;2023-07-31T12:16:47;11.45;;;4.25;;
56381;SDS011;50261;51.150;4.470;2023-07-31T12:19:16;9.45;;;3.85;;
56381;SDS011;50261;51.150;4.470;2023-07-31T12:21:44;9.98;;;3.97;;
56381;SDS011;50261;51.150;4.470;2023-07-31T12:24:09;9.48;;;4.35;;
56381;SDS011;50261;51.150;4.470;2023-07-31T12:26:35;8.18;;;3.45;;
56381;SDS011;50261;51.150;4.470;2023-07-31T12:29:01;5.97;;;3.33;;
56381;SDS011;50261;51.150;4.470;2023-07-31T12:31:27;11.63;;;5.05;;
56381;SDS011;50261;51.150;4.470;2023-07-31T12:33:53;8.48;;;4.25;;
56381;SDS011;50261;51.150;4.470;2023-07-31T12:36:21;7.35;;;3.47;;
56381;SDS011;50261;51.150;4.470;2023-07-31T12:38:47;11.38;;;4.43;;
56381;SDS011;50261;51.150;4.470;2023-07-31T12:41:13;10.95;;;4.07;;
56381;SDS011;50261;51.150;4.470;2023-07-31T12:43:39;8.57;;;3.67;;
56381;SDS011;50261;51.150;4.470;2023-07-31T12:46:06;8.50;;;3.65;;
56381;SDS011;50261;51.150;4.470;2023-07-31T12:48:33;10.15;;;4.32;;
56381;SDS011;50261;51.150;4.470;2023-07-31T12:50:59;10.07;;;4.15;;
56381;SDS011;50261;51.150;4.470;2023-07-31T12:53:24;7.43;;;3.97;;
56381;SDS011;50261;51.150;4.470;2023-07-31T12:55:50;11.00;;;4.15;;
56381;SDS011;50261;51.150;4.470;2023-07-31T12:58:16;11.85;;;3.97;;
56381;SDS011;50261;51.150;4.470;2023-07-31T13:00:42;8.43;;;3.10;;
56381;SDS011;50261;51.150;4.470;2023-07-31T13:03:08;10.52;;;3.92;;
56381;SDS011;50261;51.150;4.470;2023-07-31T13:05:34;10.18;;;4.35;;
56381;SDS011;50261;51.150;4.470;2023-07-31T13:08:00;6.97;;;2.65;;
56381;SDS011;50261;51.150;4.470;2023-07-31T13:10:26;5.07;;;2.35;;
56381;SDS011;50261;51.150;4.470;2023-07-31T13:12:54;11.57;;;4.30;;
56381;SDS011;50261;51.150;4.470;2023-07-31T13:15:19;8.15;;;3.60;;
56381;SDS011;50261;51.150;4.470;2023-07-31T13:17:45;10.95;;;3.47;;
56381;SDS011;50261;51.150;4.470;2023-07-31T13:20:11;9.65;;;3.80;;
56381;SDS011;50261;51.150;4.470;2023-07-31T13:22:37;9.18;;;3.65;;
56381;SDS011;50261;51.150;4.470;2023-07-31T13:25:03;10.18;;;4.03;;
56381;SDS011;50261;51.150;4.470;2023-07-31T13:27:29;10.70;;;4.70;;
56381;SDS011;50261;51.150;4.470;2023-07-31T13:29:54;11.10;;;4.28;;
56381;SDS011;50261;51.150;4.470;2023-07-31T13:32:20;11.63;;;4.22;;
56381;SDS011;50261;51.150;4.470;2023-07-31T13:34:46;6.95;;;3.45;;
56381;SDS011;50261;51.150;4.470;2023-07-31T13:37:12;10.13;;;4.68;;
56381;SDS011;50261;51.150;4.470;2023-07-31T13:39:38;13.70;;;4.60;;
56381;SDS011;50261;51.150;4.470;2023-07-31T13:42:04;17.90;;;4.80;;
56381;SDS011;50261;51.150;4.470;2023-07-31T13:44:32;7.90;;;3.55;;
56381;SDS011;50261;51.150;4.470;2023-07-31T13:46:58;7.15;;;3.75;;
56381;SDS011;50261;51.150;4.470;2023-07-31T13:49:26;4.32;;;1.88;;
56381;SDS011;50261;51.150;4.470;2023-07-31T13:51:52;5.78;;;2.58;;
56381;SDS011;50261;51.150;4.470;2023-07-31T13:54:18;6.95;;;2.72;;
56381;SDS011;50261;51.150;4.470;2023-07-31T13:56:44;7.25;;;2.83;;
56381;SDS011;50261;51.150;4.470;2023-07-31T13:59:10;5.55;;;2.58;;
56381;SDS011;50261;51.150;4.470;2023-07-31T14:01:36;15.00;;;3.10;;
56381;SDS011;50261;51.150;4.470;2023-07-31T14:04:01;12.70;;;3.17;;
56381;SDS011;50261;51.150;4.470;2023-07-31T14:06:27;5.75;;;2.67;;
56381;SDS011;50261;51.150;4.470;2023-07-31T14:08:53;8.40;;;3.00;;
56381;SDS011;50261;51.150;4.470;2023-07-31T14:11:19;4.88;;;2.00;;
56381;SDS011;50261;51.150;4.470;2023-07-31T14:13:44;8.40;;;2.63;;
56381;SDS011;50261;51.150;4.470;2023-07-31T14:16:10;3.72;;;1.85;;
56381;SDS011;50261;51.150;4.470;2023-07-31T14:18:36;3.62;;;1.80;;
56381;SDS011;50261;51.150;4.470;2023-07-31T14:21:01;6.50;;;2.30;;
56381;SDS011;50261;51.150;4.470;2023-07-31T14:23:27;5.40;;;2.03;;
56381;SDS011;50261;51.150;4.470;2023-07-31T14:25:53;2.42;;;1.05;;
56381;SDS011;50261;51.150;4.470;2023-07-31T14:28:18;4.85;;;2.17;;
56381;SDS011;50261;51.150;4.470;2023-07-31T14:30:44;4.35;;;1.95;;
56381;SDS011;50261;51.150;4.470;2023-07-31T14:33:10;4.43;;;2.38;;
56381;SDS011;50261;51.150;4.470;2023-07-31T14:35:35;6.97;;;2.53;;
56381;SDS011;50261;51.150;4.470;2023-07-31T14:38:07;5.60;;;2.83;;
56381;SDS011;50261;51.150;4.470;2023-07-31T14:40:33;7.57;;;3.20;;